sensor_id;sensor_type;location;lat;lon;timestamp;temperature;humidity
46283;DHT22;32017;43.700;11.820;2022-12-15T00:01:52;6.40;99.90
46283;DHT22;32017;43.700;11.820;2022-12-15T00:04:30;6.50;99.90
46283;DHT22;32017;43.700;11.820;2022-12-15T00:07:09;6.50;99.90
46283;DHT22;32017;43.700;11.820;2022-12-15T00:09:47;6.50;99.90
46283;DHT22;32017;43.700;11.820;2022-12-15T00:12:25;6.50;99.90
46283;DHT22;32017;43.700;11.820;2022-12-15T00:15:04;6.50;99.90
46283;DHT22;32017;43.700;11.820;2022-12-15T00:17:42;6.50;99.90
46283;DHT22;32017;43.700;11.820;2022-12-15T00:20:21;6.50;99.90
46283;DHT22;32017;43.700;11.820;2022-12-15T00:23:09;6.50;99.90
46283;DHT22;32017;43.700;11.820;2022-12-15T00:25:48;6.50;99.90
46283;DHT22;32017;43.700;11.820;2022-12-15T00:28:26;6.60;99.90
46283;DHT22;32017;43.700;11.820;2022-12-15T00:31:04;6.50;99.90
46283;DHT22;32017;43.700;11.820;2022-12-15T00:33:42;6.50;99.90
46283;DHT22;32017;43.700;11.820;2022-12-15T00:36:20;6.50;99.90
46283;DHT22;32017;43.700;11.820;2022-12-15T00:38:58;6.50;99.90
46283;DHT22;32017;43.700;11.820;2022-12-15T00:41:23;6.60;99.90
46283;DHT22;32017;43.700;11.820;2022-12-15T00:43:43;6.50;99.90
46283;DHT22;32017;43.700;11.820;2022-12-15T00:46:04;6.50;99.90
46283;DHT22;32017;43.700;11.820;2022-12-15T00:48:44;6.50;99.90
46283;DHT22;32017;43.700;11.820;2022-12-15T00:51:04;6.40;99.90
46283;DHT22;32017;43.700;11.820;2022-12-15T00:53:23;6.40;99.90
46283;DHT22;32017;43.700;11.820;2022-12-15T00:56:02;6.40;99.90
46283;DHT22;32017;43.700;11.820;2022-12-15T00:58:40;6.40;99.90
46283;DHT22;32017;43.700;11.820;2022-12-15T01:01:18;6.50;99.90
46283;DHT22;32017;43.700;11.820;2022-12-15T01:03:56;6.50;99.90
46283;DHT22;32017;43.700;11.820;2022-12-15T01:06:35;6.50;99.90
46283;DHT22;32017;43.700;11.820;2022-12-15T01:09:13;6.40;99.90
46283;DHT22;32017;43.700;11.820;2022-12-15T01:11:51;6.40;99.90
46283;DHT22;32017;43.700;11.820;2022-12-15T01:14:30;6.40;99.90
46283;DHT22;32017;43.700;11.820;2022-12-15T01:17:09;6.40;99.90
46283;DHT22;32017;43.700;11.820;2022-12-15T01:19:47;6.30;99.90
46283;DHT22;32017;43.700;11.820;2022-12-15T01:22:25;6.30;99.90
46283;DHT22;32017;43.700;11.820;2022-12-15T01:24:45;6.40;99.90
46283;DHT22;32017;43.700;11.820;2022-12-15T01:27:05;6.40;99.90
46283;DHT22;32017;43.700;11.820;2022-12-15T01:29:25;6.40;99.90
46283;DHT22;32017;43.700;11.820;2022-12-15T01:31:44;6.40;99.90
46283;DHT22;32017;43.700;11.820;2022-12-15T01:34:09;6.30;99.90
46283;DHT22;32017;43.700;11.820;2022-12-15T01:36:29;6.40;99.90
46283;DHT22;32017;43.700;11.820;2022-12-15T01:38:48;6.40;99.90
46283;DHT22;32017;43.700;11.820;2022-12-15T01:41:13;6.40;99.90
46283;DHT22;32017;43.700;11.820;2022-12-15T01:43:37;6.40;99.90
46283;DHT22;32017;43.700;11.820;2022-12-15T01:46:13;6.40;99.90
46283;DHT22;32017;43.700;11.820;2022-12-15T01:53:51;6.40;99.90
46283;DHT22;32017;43.700;11.820;2022-12-15T01:56:14;6.50;99.90
46283;DHT22;32017;43.700;11.820;2022-12-15T01:58:35;6.50;99.90
46283;DHT22;32017;43.700;11.820;2022-12-15T02:00:55;6.50;99.90
46283;DHT22;32017;43.700;11.820;2022-12-15T02:03:16;6.60;99.90
46283;DHT22;32017;43.700;11.820;2022-12-15T02:05:36;6.60;99.90
46283;DHT22;32017;43.700;11.820;2022-12-15T02:07:57;6.60;99.90
46283;DHT22;32017;43.700;11.820;2022-12-15T02:10:20;6.70;99.90
46283;DHT22;32017;43.700;11.820;2022-12-15T02:16:06;6.70;99.90
46283;DHT22;32017;43.700;11.820;2022-12-15T02:18:58;6.70;99.90
46283;DHT22;32017;43.700;11.820;2022-12-15T02:29:44;6.80;99.90
46283;DHT22;32017;43.700;11.820;2022-12-15T02:32:25;6.80;99.90
46283;DHT22;32017;43.700;11.820;2022-12-15T02:34:59;6.90;99.90
46283;DHT22;32017;43.700;11.820;2022-12-15T02:37:30;6.80;99.90
46283;DHT22;32017;43.700;11.820;2022-12-15T02:39:50;6.90;99.90
46283;DHT22;32017;43.700;11.820;2022-12-15T02:42:10;6.90;99.90
46283;DHT22;32017;43.700;11.820;2022-12-15T02:52:52;6.90;99.90
46283;DHT22;32017;43.700;11.820;2022-12-15T02:57:59;6.90;99.90
46283;DHT22;32017;43.700;11.820;2022-12-15T03:00:21;6.80;99.90
46283;DHT22;32017;43.700;11.820;2022-12-15T03:02:47;6.90;99.90
46283;DHT22;32017;43.700;11.820;2022-12-15T03:05:09;6.90;99.90
46283;DHT22;32017;43.700;11.820;2022-12-15T03:07:30;6.80;99.90
46283;DHT22;32017;43.700;11.820;2022-12-15T03:09:51;6.80;99.90
46283;DHT22;32017;43.700;11.820;2022-12-15T03:12:11;6.70;99.90
46283;DHT22;32017;43.700;11.820;2022-12-15T03:14:31;6.70;99.90
46283;DHT22;32017;43.700;11.820;2022-12-15T03:16:52;6.60;99.90
46283;DHT22;32017;43.700;11.820;2022-12-15T03:19:13;6.60;99.90
46283;DHT22;32017;43.700;11.820;2022-12-15T03:21:33;6.70;99.90
46283;DHT22;32017;43.700;11.820;2022-12-15T03:23:53;6.70;99.90
46283;DHT22;32017;43.700;11.820;2022-12-15T03:26:13;6.70;99.90
46283;DHT22;32017;43.700;11.820;2022-12-15T03:28:32;6.80;99.90
46283;DHT22;32017;43.700;11.820;2022-12-15T03:30:52;6.80;99.90
46283;DHT22;32017;43.700;11.820;2022-12-15T03:33:12;6.80;99.90
46283;DHT22;32017;43.700;11.820;2022-12-15T03:35:33;6.80;99.90
46283;DHT22;32017;43.700;11.820;2022-12-15T03:37:53;6.70;99.90
46283;DHT22;32017;43.700;11.820;2022-12-15T03:40:13;6.70;99.90
46283;DHT22;32017;43.700;11.820;2022-12-15T03:42:33;6.70;99.90
46283;DHT22;32017;43.700;11.820;2022-12-15T03:45:08;6.70;99.90
46283;DHT22;32017;43.700;11.820;2022-12-15T03:47:28;6.70;99.90
46283;DHT22;32017;43.700;11.820;2022-12-15T03:49:47;6.60;99.90
46283;DHT22;32017;43.700;11.820;2022-12-15T03:52:07;6.60;99.90
46283;DHT22;32017;43.700;11.820;2022-12-15T03:54:27;6.60;99.90
46283;DHT22;32017;43.700;11.820;2022-12-15T03:56:46;6.60;99.90
46283;DHT22;32017;43.700;11.820;2022-12-15T03:59:06;6.60;99.90
46283;DHT22;32017;43.700;11.820;2022-12-15T04:01:34;6.60;99.90
46283;DHT22;32017;43.700;11.820;2022-12-15T04:03:55;6.60;99.90
46283;DHT22;32017;43.700;11.820;2022-12-15T04:06:20;6.60;99.90
46283;DHT22;32017;43.700;11.820;2022-12-15T04:08:40;6.60;99.90
46283;DHT22;32017;43.700;11.820;2022-12-15T04:11:00;6.60;99.90
46283;DHT22;32017;43.700;11.820;2022-12-15T04:13:19;6.60;99.90
46283;DHT22;32017;43.700;11.820;2022-12-15T04:15:39;6.60;99.90
46283;DHT22;32017;43.700;11.820;2022-12-15T04:18:01;6.60;99.90
46283;DHT22;32017;43.700;11.820;2022-12-15T04:20:21;6.60;99.90
46283;DHT22;32017;43.700;11.820;2022-12-15T04:22:43;6.60;99.90
46283;DHT22;32017;43.700;11.820;2022-12-15T04:25:05;6.60;99.90
46283;DHT22;32017;43.700;11.820;2022-12-15T04:27:43;6.60;99.90
46283;DHT22;32017;43.700;11.820;2022-12-15T04:30:21;6.60;99.90
46283;DHT22;32017;43.700;11.820;2022-12-15T04:33:01;6.60;99.90
46283;DHT22;32017;43.700;11.820;2022-12-15T04:35:39;6.60;99.90
46283;DHT22;32017;43.700;11.820;2022-12-15T04:38:18;6.60;99.90
46283;DHT22;32017;43.700;11.820;2022-12-15T04:41:02;6.60;99.90
46283;DHT22;32017;43.700;11.820;2022-12-15T04:43:40;6.60;99.90
46283;DHT22;32017;43.700;11.820;2022-12-15T04:46:19;6.60;99.90
46283;DHT22;32017;43.700;11.820;2022-12-15T04:48:57;6.60;99.90
46283;DHT22;32017;43.700;11.820;2022-12-15T04:51:35;6.60;99.90
46283;DHT22;32017;43.700;11.820;2022-12-15T04:54:13;6.60;99.90
46283;DHT22;32017;43.700;11.820;2022-12-15T04:56:52;6.60;99.90
46283;DHT22;32017;43.700;11.820;2022-12-15T04:59:30;6.60;99.90
46283;DHT22;32017;43.700;11.820;2022-12-15T05:02:08;6.60;99.90
46283;DHT22;32017;43.700;11.820;2022-12-15T05:04:46;6.60;99.90
46283;DHT22;32017;43.700;11.820;2022-12-15T05:07:25;6.60;99.90
46283;DHT22;32017;43.700;11.820;2022-12-15T05:10:05;6.60;99.90
46283;DHT22;32017;43.700;11.820;2022-12-15T05:12:43;6.60;99.90
46283;DHT22;32017;43.700;11.820;2022-12-15T05:15:21;6.60;99.90
46283;DHT22;32017;43.700;11.820;2022-12-15T05:18:00;6.60;99.90
46283;DHT22;32017;43.700;11.820;2022-12-15T05:20:38;6.60;99.90
46283;DHT22;32017;43.700;11.820;2022-12-15T05:23:16;6.60;99.90
46283;DHT22;32017;43.700;11.820;2022-12-15T05:25:54;6.60;99.90
46283;DHT22;32017;43.700;11.820;2022-12-15T05:28:32;6.60;99.90
46283;DHT22;32017;43.700;11.820;2022-12-15T05:31:11;6.60;99.90
46283;DHT22;32017;43.700;11.820;2022-12-15T05:33:50;6.60;99.90
46283;DHT22;32017;43.700;11.820;2022-12-15T05:36:11;6.60;99.90
46283;DHT22;32017;43.700;11.820;2022-12-15T05:38:30;6.60;99.90
46283;DHT22;32017;43.700;11.820;2022-12-15T05:40:50;6.60;99.90
46283;DHT22;32017;43.700;11.820;2022-12-15T05:43:10;6.60;99.90
46283;DHT22;32017;43.700;11.820;2022-12-15T05:45:29;6.60;99.90
46283;DHT22;32017;43.700;11.820;2022-12-15T05:47:53;6.60;99.90
46283;DHT22;32017;43.700;11.820;2022-12-15T05:50:13;6.70;99.90
46283;DHT22;32017;43.700;11.820;2022-12-15T05:52:33;6.70;99.90
46283;DHT22;32017;43.700;11.820;2022-12-15T05:54:53;6.80;99.90
46283;DHT22;32017;43.700;11.820;2022-12-15T05:57:13;6.90;99.90
46283;DHT22;32017;43.700;11.820;2022-12-15T05:59:32;7.00;99.90
46283;DHT22;32017;43.700;11.820;2022-12-15T06:01:52;7.00;99.90
46283;DHT22;32017;43.700;11.820;2022-12-15T06:04:13;7.00;99.90
46283;DHT22;32017;43.700;11.820;2022-12-15T06:06:33;6.90;99.90
46283;DHT22;32017;43.700;11.820;2022-12-15T06:08:52;7.00;99.90
46283;DHT22;32017;43.700;11.820;2022-12-15T06:11:14;7.00;99.90
46283;DHT22;32017;43.700;11.820;2022-12-15T06:13:34;7.00;99.90
46283;DHT22;32017;43.700;11.820;2022-12-15T06:16:00;7.00;99.90
46283;DHT22;32017;43.700;11.820;2022-12-15T06:18:20;7.00;99.90
46283;DHT22;32017;43.700;11.820;2022-12-15T06:20:40;7.00;99.90
46283;DHT22;32017;43.700;11.820;2022-12-15T06:23:00;7.10;99.90
46283;DHT22;32017;43.700;11.820;2022-12-15T06:25:20;7.00;99.90
46283;DHT22;32017;43.700;11.820;2022-12-15T06:27:40;7.00;99.90
46283;DHT22;32017;43.700;11.820;2022-12-15T06:29:59;7.00;99.90
46283;DHT22;32017;43.700;11.820;2022-12-15T06:32:19;7.00;99.90
46283;DHT22;32017;43.700;11.820;2022-12-15T06:34:40;7.10;99.90
46283;DHT22;32017;43.700;11.820;2022-12-15T06:37:00;7.10;99.90
46283;DHT22;32017;43.700;11.820;2022-12-15T06:39:19;7.10;99.90
46283;DHT22;32017;43.700;11.820;2022-12-15T06:41:40;7.10;99.90
46283;DHT22;32017;43.700;11.820;2022-12-15T06:44:01;7.20;99.90
46283;DHT22;32017;43.700;11.820;2022-12-15T06:46:21;7.10;99.90
46283;DHT22;32017;43.700;11.820;2022-12-15T06:48:41;7.10;99.90
46283;DHT22;32017;43.700;11.820;2022-12-15T06:51:05;7.10;99.90
46283;DHT22;32017;43.700;11.820;2022-12-15T06:53:25;7.10;99.90
46283;DHT22;32017;43.700;11.820;2022-12-15T06:55:45;7.10;99.90
46283;DHT22;32017;43.700;11.820;2022-12-15T06:58:05;7.10;99.90
46283;DHT22;32017;43.700;11.820;2022-12-15T07:00:25;7.10;99.90
46283;DHT22;32017;43.700;11.820;2022-12-15T07:02:46;7.10;99.90
46283;DHT22;32017;43.700;11.820;2022-12-15T07:05:09;7.10;99.90
46283;DHT22;32017;43.700;11.820;2022-12-15T07:07:29;7.10;99.90
46283;DHT22;32017;43.700;11.820;2022-12-15T07:09:48;7.20;99.90
46283;DHT22;32017;43.700;11.820;2022-12-15T07:12:09;7.20;99.90
46283;DHT22;32017;43.700;11.820;2022-12-15T07:14:31;7.20;99.90
46283;DHT22;32017;43.700;11.820;2022-12-15T07:16:50;7.20;99.90
46283;DHT22;32017;43.700;11.820;2022-12-15T07:19:10;7.30;99.90
46283;DHT22;32017;43.700;11.820;2022-12-15T07:21:31;7.30;99.90
46283;DHT22;32017;43.700;11.820;2022-12-15T07:23:51;7.40;99.90
46283;DHT22;32017;43.700;11.820;2022-12-15T07:26:15;7.40;99.90
46283;DHT22;32017;43.700;11.820;2022-12-15T07:28:36;7.30;99.90
46283;DHT22;32017;43.700;11.820;2022-12-15T07:31:05;7.40;99.90
46283;DHT22;32017;43.700;11.820;2022-12-15T07:33:25;7.30;99.90
46283;DHT22;32017;43.700;11.820;2022-12-15T07:35:55;7.30;99.90
46283;DHT22;32017;43.700;11.820;2022-12-15T07:38:16;7.20;99.90
46283;DHT22;32017;43.700;11.820;2022-12-15T07:40:36;7.20;99.90
46283;DHT22;32017;43.700;11.820;2022-12-15T07:42:56;7.20;99.90
46283;DHT22;32017;43.700;11.820;2022-12-15T07:45:16;7.20;99.90
46283;DHT22;32017;43.700;11.820;2022-12-15T07:47:36;7.30;99.90
46283;DHT22;32017;43.700;11.820;2022-12-15T07:49:56;7.30;99.90
46283;DHT22;32017;43.700;11.820;2022-12-15T07:52:16;7.30;99.90
46283;DHT22;32017;43.700;11.820;2022-12-15T07:54:36;7.30;99.90
46283;DHT22;32017;43.700;11.820;2022-12-15T07:56:56;7.30;99.90
46283;DHT22;32017;43.700;11.820;2022-12-15T07:59:15;7.30;99.90
46283;DHT22;32017;43.700;11.820;2022-12-15T08:01:35;7.20;99.90
46283;DHT22;32017;43.700;11.820;2022-12-15T08:03:55;7.20;99.90
46283;DHT22;32017;43.700;11.820;2022-12-15T08:06:16;7.30;99.90
46283;DHT22;32017;43.700;11.820;2022-12-15T08:08:36;7.30;99.90
46283;DHT22;32017;43.700;11.820;2022-12-15T08:10:56;7.20;99.90
46283;DHT22;32017;43.700;11.820;2022-12-15T08:13:16;7.30;99.90
46283;DHT22;32017;43.700;11.820;2022-12-15T08:15:55;7.30;99.90
46283;DHT22;32017;43.700;11.820;2022-12-15T08:18:15;7.40;99.90
46283;DHT22;32017;43.700;11.820;2022-12-15T08:20:35;7.40;99.90
46283;DHT22;32017;43.700;11.820;2022-12-15T08:22:55;7.40;99.90
46283;DHT22;32017;43.700;11.820;2022-12-15T08:25:15;7.40;99.90
46283;DHT22;32017;43.700;11.820;2022-12-15T08:27:35;7.40;99.90
46283;DHT22;32017;43.700;11.820;2022-12-15T08:29:55;7.50;99.90
46283;DHT22;32017;43.700;11.820;2022-12-15T08:32:15;7.50;99.90
46283;DHT22;32017;43.700;11.820;2022-12-15T08:34:35;7.50;99.90
46283;DHT22;32017;43.700;11.820;2022-12-15T08:36:55;7.50;99.90
46283;DHT22;32017;43.700;11.820;2022-12-15T08:39:15;7.50;99.90
46283;DHT22;32017;43.700;11.820;2022-12-15T08:41:35;7.50;99.90
46283;DHT22;32017;43.700;11.820;2022-12-15T08:43:57;7.50;99.90
46283;DHT22;32017;43.700;11.820;2022-12-15T08:46:22;7.50;99.90
46283;DHT22;32017;43.700;11.820;2022-12-15T08:48:42;7.50;99.90
46283;DHT22;32017;43.700;11.820;2022-12-15T08:51:02;7.60;99.90
46283;DHT22;32017;43.700;11.820;2022-12-15T08:53:22;7.60;99.90
46283;DHT22;32017;43.700;11.820;2022-12-15T08:55:51;7.60;99.90
46283;DHT22;32017;43.700;11.820;2022-12-15T08:58:12;7.60;99.90
46283;DHT22;32017;43.700;11.820;2022-12-15T09:00:32;7.60;99.90
46283;DHT22;32017;43.700;11.820;2022-12-15T09:02:52;7.50;99.90
46283;DHT22;32017;43.700;11.820;2022-12-15T09:05:12;7.60;99.90
46283;DHT22;32017;43.700;11.820;2022-12-15T09:07:33;7.60;99.90
46283;DHT22;32017;43.700;11.820;2022-12-15T09:09:52;7.60;99.90
46283;DHT22;32017;43.700;11.820;2022-12-15T09:12:12;7.60;99.90
46283;DHT22;32017;43.700;11.820;2022-12-15T09:14:32;7.60;99.90
46283;DHT22;32017;43.700;11.820;2022-12-15T09:16:52;7.60;99.90
46283;DHT22;32017;43.700;11.820;2022-12-15T09:19:13;7.60;99.90
46283;DHT22;32017;43.700;11.820;2022-12-15T09:21:32;7.60;99.90
46283;DHT22;32017;43.700;11.820;2022-12-15T09:23:55;7.60;99.90
46283;DHT22;32017;43.700;11.820;2022-12-15T09:26:22;7.70;99.90
46283;DHT22;32017;43.700;11.820;2022-12-15T09:28:42;7.70;99.90
46283;DHT22;32017;43.700;11.820;2022-12-15T09:31:04;7.70;99.90
46283;DHT22;32017;43.700;11.820;2022-12-15T09:33:25;7.70;99.90
46283;DHT22;32017;43.700;11.820;2022-12-15T09:35:51;7.70;99.90
46283;DHT22;32017;43.700;11.820;2022-12-15T09:38:11;7.70;99.90
46283;DHT22;32017;43.700;11.820;2022-12-15T09:40:31;7.70;99.90
46283;DHT22;32017;43.700;11.820;2022-12-15T09:42:54;7.80;99.90
46283;DHT22;32017;43.700;11.820;2022-12-15T09:45:40;7.80;99.90
46283;DHT22;32017;43.700;11.820;2022-12-15T09:48:05;7.90;99.90
46283;DHT22;32017;43.700;11.820;2022-12-15T09:50:36;8.00;99.90
46283;DHT22;32017;43.700;11.820;2022-12-15T09:52:57;8.00;99.90
46283;DHT22;32017;43.700;11.820;2022-12-15T09:55:26;8.10;99.90
46283;DHT22;32017;43.700;11.820;2022-12-15T09:57:55;8.10;99.90
46283;DHT22;32017;43.700;11.820;2022-12-15T10:00:19;8.30;99.90
46283;DHT22;32017;43.700;11.820;2022-12-15T10:08:42;8.40;99.90
46283;DHT22;32017;43.700;11.820;2022-12-15T10:21:26;8.60;99.90
46283;DHT22;32017;43.700;11.820;2022-12-15T10:23:47;8.60;99.90
46283;DHT22;32017;43.700;11.820;2022-12-15T10:26:20;8.60;99.90
46283;DHT22;32017;43.700;11.820;2022-12-15T10:28:59;8.60;99.90
46283;DHT22;32017;43.700;11.820;2022-12-15T10:34:00;8.80;99.90
46283;DHT22;32017;43.700;11.820;2022-12-15T10:36:24;8.80;99.90
46283;DHT22;32017;43.700;11.820;2022-12-15T10:38:45;8.80;99.90
46283;DHT22;32017;43.700;11.820;2022-12-15T10:41:13;8.90;99.90
46283;DHT22;32017;43.700;11.820;2022-12-15T10:43:39;8.90;99.90
46283;DHT22;32017;43.700;11.820;2022-12-15T10:46:12;8.80;99.90
46283;DHT22;32017;43.700;11.820;2022-12-15T10:48:35;8.90;99.90
46283;DHT22;32017;43.700;11.820;2022-12-15T10:53:46;9.00;99.90
46283;DHT22;32017;43.700;11.820;2022-12-15T10:56:28;9.00;99.90
46283;DHT22;32017;43.700;11.820;2022-12-15T10:58:58;9.00;99.90
46283;DHT22;32017;43.700;11.820;2022-12-15T11:01:27;9.00;99.90
46283;DHT22;32017;43.700;11.820;2022-12-15T11:03:47;9.10;99.90
46283;DHT22;32017;43.700;11.820;2022-12-15T11:06:15;9.10;99.90
46283;DHT22;32017;43.700;11.820;2022-12-15T11:08:36;9.10;99.90
46283;DHT22;32017;43.700;11.820;2022-12-15T11:10:56;9.10;99.90
46283;DHT22;32017;43.700;11.820;2022-12-15T11:13:35;9.20;99.90
46283;DHT22;32017;43.700;11.820;2022-12-15T11:16:18;9.20;99.90
46283;DHT22;32017;43.700;11.820;2022-12-15T11:21:19;9.30;99.90
46283;DHT22;32017;43.700;11.820;2022-12-15T11:28:44;9.40;99.90
46283;DHT22;32017;43.700;11.820;2022-12-15T11:31:22;9.40;99.90
46283;DHT22;32017;43.700;11.820;2022-12-15T11:33:43;9.60;99.90
46283;DHT22;32017;43.700;11.820;2022-12-15T11:36:25;9.60;99.90
46283;DHT22;32017;43.700;11.820;2022-12-15T11:39:00;9.60;99.90
46283;DHT22;32017;43.700;11.820;2022-12-15T11:44:03;9.60;99.90
46283;DHT22;32017;43.700;11.820;2022-12-15T11:46:26;9.70;99.90
46283;DHT22;32017;43.700;11.820;2022-12-15T11:54:17;9.90;99.90
46283;DHT22;32017;43.700;11.820;2022-12-15T12:00:11;10.00;99.90
46283;DHT22;32017;43.700;11.820;2022-12-15T12:02:31;10.10;99.90
46283;DHT22;32017;43.700;11.820;2022-12-15T12:10:58;10.10;99.90
46283;DHT22;32017;43.700;11.820;2022-12-15T12:16:17;10.20;99.90
46283;DHT22;32017;43.700;11.820;2022-12-15T12:18:46;10.20;99.90
46283;DHT22;32017;43.700;11.820;2022-12-15T12:21:11;10.20;99.90
46283;DHT22;32017;43.700;11.820;2022-12-15T12:26:34;10.20;99.90
46283;DHT22;32017;43.700;11.820;2022-12-15T12:29:29;10.20;99.90
46283;DHT22;32017;43.700;11.820;2022-12-15T12:32:10;10.20;99.90
46283;DHT22;32017;43.700;11.820;2022-12-15T12:37:03;10.20;99.90
46283;DHT22;32017;43.700;11.820;2022-12-15T12:39:31;10.20;99.90
46283;DHT22;32017;43.700;11.820;2022-12-15T12:42:07;10.10;99.90
46283;DHT22;32017;43.700;11.820;2022-12-15T12:44:32;10.10;99.90
46283;DHT22;32017;43.700;11.820;2022-12-15T12:46:55;10.10;99.90
46283;DHT22;32017;43.700;11.820;2022-12-15T12:51:54;10.00;99.90
46283;DHT22;32017;43.700;11.820;2022-12-15T12:56:52;9.80;99.90
46283;DHT22;32017;43.700;11.820;2022-12-15T13:01:48;9.70;99.90
46283;DHT22;32017;43.700;11.820;2022-12-15T13:04:37;9.70;99.90
46283;DHT22;32017;43.700;11.820;2022-12-15T13:07:01;9.70;99.90
46283;DHT22;32017;43.700;11.820;2022-12-15T13:09:23;9.70;99.90
46283;DHT22;32017;43.700;11.820;2022-12-15T13:14:15;9.60;99.90
46283;DHT22;32017;43.700;11.820;2022-12-15T13:16:53;9.60;99.90
46283;DHT22;32017;43.700;11.820;2022-12-15T13:22:26;9.60;99.90
46283;DHT22;32017;43.700;11.820;2022-12-15T13:24:47;9.60;99.90
46283;DHT22;32017;43.700;11.820;2022-12-15T13:32:37;9.50;99.90
46283;DHT22;32017;43.700;11.820;2022-12-15T13:40:27;9.50;99.90
46283;DHT22;32017;43.700;11.820;2022-12-15T13:42:57;9.50;99.90
46283;DHT22;32017;43.700;11.820;2022-12-15T13:48:01;9.40;99.90
46283;DHT22;32017;43.700;11.820;2022-12-15T13:50:35;9.40;99.90
46283;DHT22;32017;43.700;11.820;2022-12-15T13:53:00;9.30;99.90
46283;DHT22;32017;43.700;11.820;2022-12-15T13:55:51;9.40;99.90
46283;DHT22;32017;43.700;11.820;2022-12-15T13:58:19;9.30;99.90
46283;DHT22;32017;43.700;11.820;2022-12-15T14:00:51;9.30;99.90
46283;DHT22;32017;43.700;11.820;2022-12-15T14:03:11;9.30;99.90
46283;DHT22;32017;43.700;11.820;2022-12-15T14:05:31;9.30;99.90
46283;DHT22;32017;43.700;11.820;2022-12-15T14:07:55;9.30;99.90
46283;DHT22;32017;43.700;11.820;2022-12-15T14:12:39;9.30;99.90
46283;DHT22;32017;43.700;11.820;2022-12-15T14:14:59;9.20;99.90
46283;DHT22;32017;43.700;11.820;2022-12-15T14:17:20;9.30;99.90
46283;DHT22;32017;43.700;11.820;2022-12-15T14:19:45;9.30;99.90
46283;DHT22;32017;43.700;11.820;2022-12-15T14:22:26;9.30;99.90
46283;DHT22;32017;43.700;11.820;2022-12-15T14:24:50;9.30;99.90
46283;DHT22;32017;43.700;11.820;2022-12-15T14:27:31;9.30;99.90
46283;DHT22;32017;43.700;11.820;2022-12-15T14:32:34;9.30;99.90
46283;DHT22;32017;43.700;11.820;2022-12-15T14:34:54;9.30;99.90
46283;DHT22;32017;43.700;11.820;2022-12-15T14:37:19;9.20;99.90
46283;DHT22;32017;43.700;11.820;2022-12-15T14:39:42;9.20;99.90
46283;DHT22;32017;43.700;11.820;2022-12-15T14:42:05;9.20;99.90
46283;DHT22;32017;43.700;11.820;2022-12-15T14:44:37;9.20;99.90
46283;DHT22;32017;43.700;11.820;2022-12-15T14:47:01;9.20;99.90
46283;DHT22;32017;43.700;11.820;2022-12-15T14:49:25;9.10;99.90
46283;DHT22;32017;43.700;11.820;2022-12-15T14:51:50;9.20;99.90
46283;DHT22;32017;43.700;11.820;2022-12-15T14:54:35;9.10;99.90
46283;DHT22;32017;43.700;11.820;2022-12-15T14:57:20;9.10;99.90
46283;DHT22;32017;43.700;11.820;2022-12-15T14:59:43;9.10;99.90
46283;DHT22;32017;43.700;11.820;2022-12-15T15:05:00;9.20;99.90
46283;DHT22;32017;43.700;11.820;2022-12-15T15:07:23;9.30;99.90
46283;DHT22;32017;43.700;11.820;2022-12-15T15:09:44;9.30;99.90
46283;DHT22;32017;43.700;11.820;2022-12-15T15:12:37;9.40;99.90
46283;DHT22;32017;43.700;11.820;2022-12-15T15:19:32;9.60;99.90
46283;DHT22;32017;43.700;11.820;2022-12-15T15:21:59;9.60;99.90
46283;DHT22;32017;43.700;11.820;2022-12-15T15:24:23;9.50;99.90
46283;DHT22;32017;43.700;11.820;2022-12-15T15:26:44;9.50;99.90
46283;DHT22;32017;43.700;11.820;2022-12-15T15:32:13;9.50;99.90
46283;DHT22;32017;43.700;11.820;2022-12-15T15:34:34;9.50;99.90
46283;DHT22;32017;43.700;11.820;2022-12-15T15:36:54;9.60;99.90
46283;DHT22;32017;43.700;11.820;2022-12-15T15:39:14;9.60;99.90
46283;DHT22;32017;43.700;11.820;2022-12-15T15:41:34;9.60;99.90
46283;DHT22;32017;43.700;11.820;2022-12-15T15:43:56;9.60;99.90
46283;DHT22;32017;43.700;11.820;2022-12-15T15:46:24;9.60;99.90
46283;DHT22;32017;43.700;11.820;2022-12-15T15:48:50;9.50;99.90
46283;DHT22;32017;43.700;11.820;2022-12-15T15:51:11;9.50;99.90
46283;DHT22;32017;43.700;11.820;2022-12-15T15:53:33;9.50;99.90
46283;DHT22;32017;43.700;11.820;2022-12-15T15:55:54;9.60;99.90
46283;DHT22;32017;43.700;11.820;2022-12-15T15:58:14;9.60;99.90
46283;DHT22;32017;43.700;11.820;2022-12-15T16:00:34;9.60;99.90
46283;DHT22;32017;43.700;11.820;2022-12-15T16:02:54;9.70;99.90
46283;DHT22;32017;43.700;11.820;2022-12-15T16:05:15;9.80;99.90
46283;DHT22;32017;43.700;11.820;2022-12-15T16:07:35;9.70;99.90
46283;DHT22;32017;43.700;11.820;2022-12-15T16:09:55;9.70;99.90
46283;DHT22;32017;43.700;11.820;2022-12-15T16:12:34;9.80;99.90
46283;DHT22;32017;43.700;11.820;2022-12-15T16:14:56;9.80;99.90
46283;DHT22;32017;43.700;11.820;2022-12-15T16:17:16;9.80;99.90
46283;DHT22;32017;43.700;11.820;2022-12-15T16:19:36;9.80;99.90
46283;DHT22;32017;43.700;11.820;2022-12-15T16:22:00;9.80;99.90
46283;DHT22;32017;43.700;11.820;2022-12-15T16:24:20;9.80;99.90
46283;DHT22;32017;43.700;11.820;2022-12-15T16:26:46;9.80;99.90
46283;DHT22;32017;43.700;11.820;2022-12-15T16:29:17;9.90;99.90
46283;DHT22;32017;43.700;11.820;2022-12-15T16:31:37;9.90;99.90
46283;DHT22;32017;43.700;11.820;2022-12-15T16:34:03;9.90;99.90
46283;DHT22;32017;43.700;11.820;2022-12-15T16:36:24;9.90;99.90
46283;DHT22;32017;43.700;11.820;2022-12-15T16:38:44;9.90;99.90
46283;DHT22;32017;43.700;11.820;2022-12-15T16:41:05;9.90;99.90
46283;DHT22;32017;43.700;11.820;2022-12-15T16:43:26;10.00;99.90
46283;DHT22;32017;43.700;11.820;2022-12-15T16:45:55;10.00;99.90
46283;DHT22;32017;43.700;11.820;2022-12-15T16:48:16;10.10;99.90
46283;DHT22;32017;43.700;11.820;2022-12-15T16:50:40;10.00;99.90
46283;DHT22;32017;43.700;11.820;2022-12-15T16:53:01;10.00;99.90
46283;DHT22;32017;43.700;11.820;2022-12-15T16:55:24;9.90;99.90
46283;DHT22;32017;43.700;11.820;2022-12-15T16:57:45;9.90;99.90
46283;DHT22;32017;43.700;11.820;2022-12-15T17:00:20;9.90;99.90
46283;DHT22;32017;43.700;11.820;2022-12-15T17:02:41;10.00;99.90
46283;DHT22;32017;43.700;11.820;2022-12-15T17:05:02;10.00;99.90
46283;DHT22;32017;43.700;11.820;2022-12-15T17:07:25;10.20;99.90
46283;DHT22;32017;43.700;11.820;2022-12-15T17:09:45;10.30;99.90
46283;DHT22;32017;43.700;11.820;2022-12-15T17:12:05;10.40;99.90
46283;DHT22;32017;43.700;11.820;2022-12-15T17:14:24;10.50;99.90
46283;DHT22;32017;43.700;11.820;2022-12-15T17:16:45;10.50;99.90
46283;DHT22;32017;43.700;11.820;2022-12-15T17:19:05;10.50;99.90
46283;DHT22;32017;43.700;11.820;2022-12-15T17:21:25;10.50;99.90
46283;DHT22;32017;43.700;11.820;2022-12-15T17:23:50;10.40;99.90
46283;DHT22;32017;43.700;11.820;2022-12-15T17:26:26;10.30;99.90